Simonsville, Vermont
Current Conditions -  °F | °C
As of 9:54 PM on Tuesday 21 Oct 2014 (Local Time) from KVSF Reporting Station
Overcast Overcast  
Wind Chill: 49°   Ceiling: 1200
Heat Index: 49°   Visibility: 10mi
Dew Point: 45°   Wind: 3mph
Humidity: 86%   Direction: 40°NE
Pressure: 30.05"   Gusts: NA
Location:  43.2811°N, 72.6352°W
Report Text: KVSF 220154Z AUTO 04003KT 10SM OVC012 09/07 A3005 RMK AO2 SLP178 T00940072
Loading
Personal Weather Stations






























Interactive Weather Map
Tropical Storm Tracking
New forecast layout! Learn more

10-Day Weather Forecast

Advertisements
Track Severe Weather on mobile